CheckWX is a tool to help pilots better visualize weather data.  It is not intended as a substitute for an official pre-flight weather briefing.

23:07:47 UTC

KISP METAR
Long Island Mac Arthur Airport
New York, New York, USA
Current

1 hour ago

KISP 192156Z 20009KT 10SM SCT009 BKN250 28/24 A2985 RMK AO2 SLP105 T02780244
Observed
Jul-19 @ 21:56 UTC
Wind
  • 200° at 9 KTS
Visibility
10 SM
Flight Rules
VFR
Cloud Levels
  • Scattered at 900' AGL
  • Broken at 25,000' AGL
Temperature
28°C / 82°F
Dewpoint
24°C / 75°F
Heat Index
32°C / 89°F
Humidity
79%
Altimeter
29.85" Hg
Pressure
1010.82 hPa
Previous

2 hours ago

KISP 192117Z 21010KT 10SM SCT010 BKN250 28/24 A2985 RMK AO2 T02780244
Observed
Jul-19 @ 21:17 UTC
Wind
  • 210° at 10 KTS
Visibility
10 SM
Flight Rules
VFR
Cloud Levels
  • Scattered at 1,000' AGL
  • Broken at 25,000' AGL
Temperature
28°C / 82°F
Dewpoint
24°C / 75°F
Heat Index
32°C / 89°F
Humidity
79%
Altimeter
29.85" Hg
Pressure
1010.82 hPa
Previous

2 hours ago

KISP 192056Z 23009G17KT 10SM BKN008 BKN250 28/24 A2986 RMK AO2 SLP111 T02780244 58010
Observed
Jul-19 @ 20:56 UTC
Wind
  • 230° at 9 KTS
  • Gusting to 17 KTS
Visibility
10 SM
Flight Rules
IFR
Cloud Levels
  • Broken at 800' AGL
  • Broken at 25,000' AGL
Temperature
28°C / 82°F
Dewpoint
24°C / 75°F
Heat Index
32°C / 89°F
Humidity
79%
Altimeter
29.86" Hg
Pressure
1011.22 hPa